sensor_id;sensor_type;location;lat;lon;timestamp;P1;durP1;ratioP1;P2;durP2;ratioP2
66581;SDS011;53438;48.898;2.308;2024-01-15T00:00:17;21.70;;;10.63;;
66581;SDS011;53438;48.898;2.308;2024-01-15T00:02:43;21.00;;;10.18;;
66581;SDS011;53438;48.898;2.308;2024-01-15T00:05:08;21.27;;;10.18;;
66581;SDS011;53438;48.898;2.308;2024-01-15T00:07:33;20.83;;;10.03;;
66581;SDS011;53438;48.898;2.308;2024-01-15T00:10:00;24.47;;;11.07;;
66581;SDS011;53438;48.898;2.308;2024-01-15T00:12:26;24.73;;;10.60;;
66581;SDS011;53438;48.898;2.308;2024-01-15T00:14:51;23.00;;;10.50;;
66581;SDS011;53438;48.898;2.308;2024-01-15T00:17:17;24.23;;;10.77;;
66581;SDS011;53438;48.898;2.308;2024-01-15T00:19:42;21.70;;;10.63;;
66581;SDS011;53438;48.898;2.308;2024-01-15T00:22:07;23.88;;;12.00;;
66581;SDS011;53438;48.898;2.308;2024-01-15T00:24:33;22.53;;;10.90;;
66581;SDS011;53438;48.898;2.308;2024-01-15T00:26:58;19.93;;;10.33;;
66581;SDS011;53438;48.898;2.308;2024-01-15T00:29:23;21.83;;;9.93;;
66581;SDS011;53438;48.898;2.308;2024-01-15T00:31:49;23.00;;;9.93;;
66581;SDS011;53438;48.898;2.308;2024-01-15T00:34:14;20.40;;;10.63;;
66581;SDS011;53438;48.898;2.308;2024-01-15T00:36:39;21.27;;;10.47;;
66581;SDS011;53438;48.898;2.308;2024-01-15T00:39:05;20.37;;;9.40;;
66581;SDS011;53438;48.898;2.308;2024-01-15T00:41:30;22.45;;;10.35;;
66581;SDS011;53438;48.898;2.308;2024-01-15T00:43:56;23.92;;;9.98;;
66581;SDS011;53438;48.898;2.308;2024-01-15T00:46:23;22.25;;;9.82;;
66581;SDS011;53438;48.898;2.308;2024-01-15T00:48:48;21.63;;;10.50;;
66581;SDS011;53438;48.898;2.308;2024-01-15T00:51:14;23.87;;;10.23;;
66581;SDS011;53438;48.898;2.308;2024-01-15T00:53:39;23.98;;;10.23;;
66581;SDS011;53438;48.898;2.308;2024-01-15T00:56:05;20.55;;;9.43;;
66581;SDS011;53438;48.898;2.308;2024-01-15T00:58:30;23.50;;;11.23;;
66581;SDS011;53438;48.898;2.308;2024-01-15T04:02:50;18.48;;;8.68;;
66581;SDS011;53438;48.898;2.308;2024-01-15T04:05:15;23.10;;;9.00;;
66581;SDS011;53438;48.898;2.308;2024-01-15T04:07:40;18.77;;;8.77;;
66581;SDS011;53438;48.898;2.308;2024-01-15T04:10:06;20.03;;;9.60;;
66581;SDS011;53438;48.898;2.308;2024-01-15T04:12:31;22.27;;;9.63;;
66581;SDS011;53438;48.898;2.308;2024-01-15T04:14:57;19.70;;;8.70;;
66581;SDS011;53438;48.898;2.308;2024-01-15T04:17:22;23.23;;;9.65;;
66581;SDS011;53438;48.898;2.308;2024-01-15T04:19:47;23.27;;;8.57;;
66581;SDS011;53438;48.898;2.308;2024-01-15T04:22:13;18.97;;;8.80;;
66581;SDS011;53438;48.898;2.308;2024-01-15T04:24:38;18.37;;;7.97;;
66581;SDS011;53438;48.898;2.308;2024-01-15T04:27:04;18.13;;;8.83;;
66581;SDS011;53438;48.898;2.308;2024-01-15T04:29:29;18.75;;;8.63;;
66581;SDS011;53438;48.898;2.308;2024-01-15T04:31:55;18.20;;;7.90;;
66581;SDS011;53438;48.898;2.308;2024-01-15T04:34:20;20.77;;;8.63;;
66581;SDS011;53438;48.898;2.308;2024-01-15T04:36:45;18.43;;;7.87;;
66581;SDS011;53438;48.898;2.308;2024-01-15T04:39:11;19.50;;;7.87;;
66581;SDS011;53438;48.898;2.308;2024-01-15T04:41:36;20.97;;;9.27;;
66581;SDS011;53438;48.898;2.308;2024-01-15T04:44:02;22.10;;;8.88;;
66581;SDS011;53438;48.898;2.308;2024-01-15T04:46:27;21.73;;;8.57;;
66581;SDS011;53438;48.898;2.308;2024-01-15T04:48:52;17.97;;;7.83;;
66581;SDS011;53438;48.898;2.308;2024-01-15T04:51:18;16.23;;;8.07;;
66581;SDS011;53438;48.898;2.308;2024-01-15T04:53:43;20.13;;;8.07;;
66581;SDS011;53438;48.898;2.308;2024-01-15T04:56:09;19.30;;;8.18;;
66581;SDS011;53438;48.898;2.308;2024-01-15T04:58:34;16.80;;;7.63;;
66581;SDS011;53438;48.898;2.308;2024-01-15T05:01:00;17.37;;;7.53;;
66581;SDS011;53438;48.898;2.308;2024-01-15T05:03:25;20.57;;;8.23;;
66581;SDS011;53438;48.898;2.308;2024-01-15T05:05:50;16.97;;;7.03;;
66581;SDS011;53438;48.898;2.308;2024-01-15T05:08:16;17.20;;;7.33;;
66581;SDS011;53438;48.898;2.308;2024-01-15T05:10:41;15.60;;;7.10;;
66581;SDS011;53438;48.898;2.308;2024-01-15T05:13:06;21.13;;;8.63;;
66581;SDS011;53438;48.898;2.308;2024-01-15T05:15:33;15.10;;;7.40;;
66581;SDS011;53438;48.898;2.308;2024-01-15T05:17:58;17.17;;;7.00;;
66581;SDS011;53438;48.898;2.308;2024-01-15T05:20:24;17.60;;;7.27;;
66581;SDS011;53438;48.898;2.308;2024-01-15T05:22:49;15.90;;;7.07;;
66581;SDS011;53438;48.898;2.308;2024-01-15T05:25:14;18.40;;;8.47;;
66581;SDS011;53438;48.898;2.308;2024-01-15T05:27:39;19.63;;;7.73;;
66581;SDS011;53438;48.898;2.308;2024-01-15T05:30:05;18.75;;;7.50;;
66581;SDS011;53438;48.898;2.308;2024-01-15T05:32:31;16.90;;;7.07;;
66581;SDS011;53438;48.898;2.308;2024-01-15T05:34:57;14.82;;;6.60;;
66581;SDS011;53438;48.898;2.308;2024-01-15T05:37:22;17.67;;;7.63;;
66581;SDS011;53438;48.898;2.308;2024-01-15T05:39:48;16.07;;;6.77;;
66581;SDS011;53438;48.898;2.308;2024-01-15T05:42:13;17.40;;;7.23;;
66581;SDS011;53438;48.898;2.308;2024-01-15T05:44:38;19.90;;;8.80;;
66581;SDS011;53438;48.898;2.308;2024-01-15T05:47:04;14.83;;;6.57;;
66581;SDS011;53438;48.898;2.308;2024-01-15T05:49:29;17.33;;;7.63;;
66581;SDS011;53438;48.898;2.308;2024-01-15T05:51:55;22.25;;;8.50;;
66581;SDS011;53438;48.898;2.308;2024-01-15T05:54:20;17.00;;;7.97;;
66581;SDS011;53438;48.898;2.308;2024-01-15T05:56:45;16.17;;;7.60;;
66581;SDS011;53438;48.898;2.308;2024-01-15T05:59:11;17.83;;;7.30;;
66581;SDS011;53438;48.898;2.308;2024-01-15T06:01:36;21.60;;;7.60;;
66581;SDS011;53438;48.898;2.308;2024-01-15T06:04:01;19.57;;;8.33;;
66581;SDS011;53438;48.898;2.308;2024-01-15T06:06:27;19.53;;;7.70;;
66581;SDS011;53438;48.898;2.308;2024-01-15T06:08:52;16.33;;;7.70;;
66581;SDS011;53438;48.898;2.308;2024-01-15T06:11:18;16.00;;;7.70;;
66581;SDS011;53438;48.898;2.308;2024-01-15T06:13:43;15.67;;;6.43;;
66581;SDS011;53438;48.898;2.308;2024-01-15T06:16:14;18.13;;;7.30;;
66581;SDS011;53438;48.898;2.308;2024-01-15T06:18:41;19.23;;;7.90;;
66581;SDS011;53438;48.898;2.308;2024-01-15T06:21:06;16.20;;;6.60;;
66581;SDS011;53438;48.898;2.308;2024-01-15T06:23:32;17.93;;;8.03;;
66581;SDS011;53438;48.898;2.308;2024-01-15T06:25:57;18.00;;;7.50;;
66581;SDS011;53438;48.898;2.308;2024-01-15T06:28:22;14.53;;;7.63;;
66581;SDS011;53438;48.898;2.308;2024-01-15T06:30:48;15.83;;;6.90;;
66581;SDS011;53438;48.898;2.308;2024-01-15T06:33:13;16.67;;;8.20;;
66581;SDS011;53438;48.898;2.308;2024-01-15T06:35:39;16.20;;;6.50;;
66581;SDS011;53438;48.898;2.308;2024-01-15T06:38:04;17.30;;;8.82;;
66581;SDS011;53438;48.898;2.308;2024-01-15T06:40:29;18.87;;;7.17;;
66581;SDS011;53438;48.898;2.308;2024-01-15T06:42:54;17.37;;;6.80;;
66581;SDS011;53438;48.898;2.308;2024-01-15T06:45:20;16.80;;;7.03;;
66581;SDS011;53438;48.898;2.308;2024-01-15T06:47:45;16.27;;;7.97;;
66581;SDS011;53438;48.898;2.308;2024-01-15T06:50:10;20.60;;;7.67;;
66581;SDS011;53438;48.898;2.308;2024-01-15T06:52:36;19.83;;;8.27;;
66581;SDS011;53438;48.898;2.308;2024-01-15T06:55:01;19.10;;;7.20;;
66581;SDS011;53438;48.898;2.308;2024-01-15T06:57:27;17.48;;;8.00;;
66581;SDS011;53438;48.898;2.308;2024-01-15T06:59:52;20.30;;;9.03;;
66581;SDS011;53438;48.898;2.308;2024-01-15T07:02:17;19.43;;;9.60;;
66581;SDS011;53438;48.898;2.308;2024-01-15T07:04:43;19.43;;;7.73;;
66581;SDS011;53438;48.898;2.308;2024-01-15T07:07:08;21.77;;;9.23;;
66581;SDS011;53438;48.898;2.308;2024-01-15T07:09:33;21.07;;;9.47;;
66581;SDS011;53438;48.898;2.308;2024-01-15T07:11:59;22.67;;;10.40;;
66581;SDS011;53438;48.898;2.308;2024-01-15T07:14:24;22.20;;;8.37;;
66581;SDS011;53438;48.898;2.308;2024-01-15T07:16:50;23.60;;;9.50;;
66581;SDS011;53438;48.898;2.308;2024-01-15T07:19:15;25.27;;;10.67;;
66581;SDS011;53438;48.898;2.308;2024-01-15T07:21:40;22.63;;;10.02;;
66581;SDS011;53438;48.898;2.308;2024-01-15T07:24:07;26.73;;;10.30;;
66581;SDS011;53438;48.898;2.308;2024-01-15T07:26:33;25.50;;;10.52;;
66581;SDS011;53438;48.898;2.308;2024-01-15T07:28:59;25.97;;;10.60;;
66581;SDS011;53438;48.898;2.308;2024-01-15T07:31:24;25.40;;;10.93;;
66581;SDS011;53438;48.898;2.308;2024-01-15T07:33:51;26.27;;;11.30;;
66581;SDS011;53438;48.898;2.308;2024-01-15T07:36:16;26.55;;;11.43;;
66581;SDS011;53438;48.898;2.308;2024-01-15T07:38:41;29.93;;;12.40;;
66581;SDS011;53438;48.898;2.308;2024-01-15T07:41:07;28.80;;;10.15;;
66581;SDS011;53438;48.898;2.308;2024-01-15T07:43:33;25.47;;;11.20;;
66581;SDS011;53438;48.898;2.308;2024-01-15T07:45:58;27.57;;;10.13;;
66581;SDS011;53438;48.898;2.308;2024-01-15T07:48:24;24.65;;;9.65;;
66581;SDS011;53438;48.898;2.308;2024-01-15T07:50:49;24.90;;;10.52;;
66581;SDS011;53438;48.898;2.308;2024-01-15T07:53:14;30.63;;;11.50;;
66581;SDS011;53438;48.898;2.308;2024-01-15T07:55:40;24.07;;;9.67;;
66581;SDS011;53438;48.898;2.308;2024-01-15T07:58:05;27.37;;;10.97;;
66581;SDS011;53438;48.898;2.308;2024-01-15T08:00:30;25.63;;;11.60;;
66581;SDS011;53438;48.898;2.308;2024-01-15T08:02:56;24.57;;;10.70;;
66581;SDS011;53438;48.898;2.308;2024-01-15T08:05:21;24.47;;;9.10;;
66581;SDS011;53438;48.898;2.308;2024-01-15T08:07:47;24.02;;;10.77;;
66581;SDS011;53438;48.898;2.308;2024-01-15T08:10:13;29.30;;;10.80;;
66581;SDS011;53438;48.898;2.308;2024-01-15T08:12:39;23.92;;;11.25;;
66581;SDS011;53438;48.898;2.308;2024-01-15T08:15:04;24.63;;;14.37;;
66581;SDS011;53438;48.898;2.308;2024-01-15T08:17:30;26.60;;;11.10;;
66581;SDS011;53438;48.898;2.308;2024-01-15T08:19:57;24.17;;;8.80;;
66581;SDS011;53438;48.898;2.308;2024-01-15T08:22:22;29.90;;;12.80;;
66581;SDS011;53438;48.898;2.308;2024-01-15T08:24:48;23.75;;;10.00;;
66581;SDS011;53438;48.898;2.308;2024-01-15T08:27:13;25.50;;;11.30;;
66581;SDS011;53438;48.898;2.308;2024-01-15T08:29:39;27.47;;;11.80;;
66581;SDS011;53438;48.898;2.308;2024-01-15T08:32:04;26.47;;;11.60;;
66581;SDS011;53438;48.898;2.308;2024-01-15T08:34:30;23.50;;;9.33;;
66581;SDS011;53438;48.898;2.308;2024-01-15T08:36:56;28.70;;;10.52;;
66581;SDS011;53438;48.898;2.308;2024-01-15T08:39:21;22.63;;;9.48;;
66581;SDS011;53438;48.898;2.308;2024-01-15T08:41:47;23.85;;;11.35;;
66581;SDS011;53438;48.898;2.308;2024-01-15T08:44:12;19.87;;;9.33;;
66581;SDS011;53438;48.898;2.308;2024-01-15T08:46:38;24.07;;;11.00;;
66581;SDS011;53438;48.898;2.308;2024-01-15T08:49:03;25.63;;;12.23;;
66581;SDS011;53438;48.898;2.308;2024-01-15T08:51:29;22.03;;;11.07;;
66581;SDS011;53438;48.898;2.308;2024-01-15T08:53:55;25.48;;;9.85;;
66581;SDS011;53438;48.898;2.308;2024-01-15T08:56:21;27.20;;;9.82;;
66581;SDS011;53438;48.898;2.308;2024-01-15T08:58:47;31.40;;;10.97;;
66581;SDS011;53438;48.898;2.308;2024-01-15T09:01:12;28.30;;;11.83;;
66581;SDS011;53438;48.898;2.308;2024-01-15T09:03:37;27.70;;;10.30;;
66581;SDS011;53438;48.898;2.308;2024-01-15T09:06:03;20.40;;;10.00;;
66581;SDS011;53438;48.898;2.308;2024-01-15T09:08:28;28.60;;;10.30;;
66581;SDS011;53438;48.898;2.308;2024-01-15T09:10:54;22.92;;;11.02;;
66581;SDS011;53438;48.898;2.308;2024-01-15T09:13:19;25.13;;;10.23;;
66581;SDS011;53438;48.898;2.308;2024-01-15T09:15:44;23.70;;;11.07;;
66581;SDS011;53438;48.898;2.308;2024-01-15T09:18:10;21.90;;;9.43;;
66581;SDS011;53438;48.898;2.308;2024-01-15T09:20:35;19.83;;;9.50;;
66581;SDS011;53438;48.898;2.308;2024-01-15T09:23:00;16.77;;;7.53;;
66581;SDS011;53438;48.898;2.308;2024-01-15T09:25:26;20.43;;;8.93;;
66581;SDS011;53438;48.898;2.308;2024-01-15T09:27:51;18.77;;;9.27;;
66581;SDS011;53438;48.898;2.308;2024-01-15T09:30:16;21.60;;;9.43;;
66581;SDS011;53438;48.898;2.308;2024-01-15T09:32:42;17.67;;;8.32;;
66581;SDS011;53438;48.898;2.308;2024-01-15T09:35:07;20.17;;;7.77;;
66581;SDS011;53438;48.898;2.308;2024-01-15T09:37:33;19.17;;;8.47;;
66581;SDS011;53438;48.898;2.308;2024-01-15T09:39:59;25.15;;;8.63;;
66581;SDS011;53438;48.898;2.308;2024-01-15T09:42:24;22.37;;;8.53;;
66581;SDS011;53438;48.898;2.308;2024-01-15T09:44:51;15.88;;;8.30;;
66581;SDS011;53438;48.898;2.308;2024-01-15T09:47:17;14.77;;;6.53;;
66581;SDS011;53438;48.898;2.308;2024-01-15T09:49:43;17.35;;;6.55;;
66581;SDS011;53438;48.898;2.308;2024-01-15T09:52:09;16.27;;;6.57;;
66581;SDS011;53438;48.898;2.308;2024-01-15T09:54:36;14.93;;;6.50;;
66581;SDS011;53438;48.898;2.308;2024-01-15T09:57:01;15.10;;;5.07;;
66581;SDS011;53438;48.898;2.308;2024-01-15T09:59:28;18.30;;;6.57;;
66581;SDS011;53438;48.898;2.308;2024-01-15T10:01:54;14.63;;;6.07;;
66581;SDS011;53438;48.898;2.308;2024-01-15T10:04:21;15.90;;;6.10;;
66581;SDS011;53438;48.898;2.308;2024-01-15T10:06:46;15.03;;;7.20;;
66581;SDS011;53438;48.898;2.308;2024-01-15T10:09:13;17.80;;;5.93;;
66581;SDS011;53438;48.898;2.308;2024-01-15T10:11:42;17.08;;;6.75;;
66581;SDS011;53438;48.898;2.308;2024-01-15T10:14:11;13.90;;;5.43;;
66581;SDS011;53438;48.898;2.308;2024-01-15T10:16:40;13.10;;;5.10;;
66581;SDS011;53438;48.898;2.308;2024-01-15T10:19:07;15.13;;;5.80;;
66581;SDS011;53438;48.898;2.308;2024-01-15T10:21:32;13.18;;;5.50;;
66581;SDS011;53438;48.898;2.308;2024-01-15T10:24:01;14.35;;;5.10;;
66581;SDS011;53438;48.898;2.308;2024-01-15T10:26:27;10.50;;;5.13;;
66581;SDS011;53438;48.898;2.308;2024-01-15T10:28:53;10.05;;;5.35;;
66581;SDS011;53438;48.898;2.308;2024-01-15T10:31:18;13.03;;;5.20;;
66581;SDS011;53438;48.898;2.308;2024-01-15T10:33:50;16.05;;;5.43;;
66581;SDS011;53438;48.898;2.308;2024-01-15T10:36:16;15.03;;;5.87;;
66581;SDS011;53438;48.898;2.308;2024-01-15T10:38:42;9.43;;;3.33;;
66581;SDS011;53438;48.898;2.308;2024-01-15T10:41:08;7.10;;;3.42;;
66581;SDS011;53438;48.898;2.308;2024-01-15T10:43:34;12.47;;;3.37;;
66581;SDS011;53438;48.898;2.308;2024-01-15T10:45:59;10.67;;;3.73;;
66581;SDS011;53438;48.898;2.308;2024-01-15T10:48:25;8.27;;;3.63;;
66581;SDS011;53438;48.898;2.308;2024-01-15T10:50:53;6.32;;;3.10;;
66581;SDS011;53438;48.898;2.308;2024-01-15T10:53:18;6.33;;;2.90;;
66581;SDS011;53438;48.898;2.308;2024-01-15T10:55:44;7.70;;;3.33;;
66581;SDS011;53438;48.898;2.308;2024-01-15T10:58:12;8.95;;;3.10;;
66581;SDS011;53438;48.898;2.308;2024-01-15T11:00:39;3.38;;;2.15;;
66581;SDS011;53438;48.898;2.308;2024-01-15T11:03:05;5.30;;;1.20;;
66581;SDS011;53438;48.898;2.308;2024-01-15T11:05:38;4.43;;;1.60;;
66581;SDS011;53438;48.898;2.308;2024-01-15T11:08:07;5.80;;;2.20;;
66581;SDS011;53438;48.898;2.308;2024-01-15T11:13:20;3.95;;;2.03;;
66581;SDS011;53438;48.898;2.308;2024-01-15T11:18:36;6.00;;;1.65;;
66581;SDS011;53438;48.898;2.308;2024-01-15T11:29:00;2.63;;;1.33;;
66581;SDS011;53438;48.898;2.308;2024-01-15T11:31:29;2.30;;;0.93;;
66581;SDS011;53438;48.898;2.308;2024-01-15T11:34:01;2.93;;;1.10;;
66581;SDS011;53438;48.898;2.308;2024-01-15T11:41:51;3.63;;;1.30;;
66581;SDS011;53438;48.898;2.308;2024-01-15T11:44:17;3.63;;;1.53;;
66581;SDS011;53438;48.898;2.308;2024-01-15T11:46:43;4.57;;;1.60;;
66581;SDS011;53438;48.898;2.308;2024-01-15T11:51:54;6.95;;;1.80;;
66581;SDS011;53438;48.898;2.308;2024-01-15T11:54:22;5.10;;;1.73;;
66581;SDS011;53438;48.898;2.308;2024-01-15T11:56:49;5.53;;;2.10;;
66581;SDS011;53438;48.898;2.308;2024-01-15T11:59:14;2.13;;;1.00;;
66581;SDS011;53438;48.898;2.308;2024-01-15T12:01:40;4.73;;;1.17;;
66581;SDS011;53438;48.898;2.308;2024-01-15T12:04:05;4.20;;;1.67;;
66581;SDS011;53438;48.898;2.308;2024-01-15T12:06:31;1.75;;;0.70;;
66581;SDS011;53438;48.898;2.308;2024-01-15T12:09:08;5.80;;;1.50;;
66581;SDS011;53438;48.898;2.308;2024-01-15T12:11:34;5.70;;;1.15;;
66581;SDS011;53438;48.898;2.308;2024-01-15T12:14:02;3.33;;;1.43;;
66581;SDS011;53438;48.898;2.308;2024-01-15T12:16:28;6.22;;;1.80;;
66581;SDS011;53438;48.898;2.308;2024-01-15T12:18:53;6.57;;;2.27;;
66581;SDS011;53438;48.898;2.308;2024-01-15T12:21:18;8.00;;;1.63;;
66581;SDS011;53438;48.898;2.308;2024-01-15T12:23:46;4.73;;;2.13;;
66581;SDS011;53438;48.898;2.308;2024-01-15T12:26:11;5.05;;;1.30;;
66581;SDS011;53438;48.898;2.308;2024-01-15T12:28:36;3.00;;;1.30;;
66581;SDS011;53438;48.898;2.308;2024-01-15T12:31:02;2.90;;;1.27;;
66581;SDS011;53438;48.898;2.308;2024-01-15T12:33:30;3.72;;;1.08;;
66581;SDS011;53438;48.898;2.308;2024-01-15T12:35:55;4.57;;;1.30;;
66581;SDS011;53438;48.898;2.308;2024-01-15T12:38:21;3.17;;;0.65;;
66581;SDS011;53438;48.898;2.308;2024-01-15T12:40:46;2.05;;;0.73;;
66581;SDS011;53438;48.898;2.308;2024-01-15T12:43:11;2.53;;;0.73;;
66581;SDS011;53438;48.898;2.308;2024-01-15T12:45:37;4.03;;;1.23;;
66581;SDS011;53438;48.898;2.308;2024-01-15T12:48:05;1.90;;;0.70;;
66581;SDS011;53438;48.898;2.308;2024-01-15T12:50:33;3.45;;;0.93;;
66581;SDS011;53438;48.898;2.308;2024-01-15T12:52:58;4.18;;;1.05;;
66581;SDS011;53438;48.898;2.308;2024-01-15T12:55:24;3.80;;;0.77;;
66581;SDS011;53438;48.898;2.308;2024-01-15T12:57:50;1.70;;;0.70;;
66581;SDS011;53438;48.898;2.308;2024-01-15T13:00:19;2.80;;;0.98;;
66581;SDS011;53438;48.898;2.308;2024-01-15T13:02:44;3.77;;;0.90;;
66581;SDS011;53438;48.898;2.308;2024-01-15T13:05:10;1.90;;;0.70;;
66581;SDS011;53438;48.898;2.308;2024-01-15T13:07:38;3.33;;;1.17;;
66581;SDS011;53438;48.898;2.308;2024-01-15T13:10:04;2.73;;;0.90;;
66581;SDS011;53438;48.898;2.308;2024-01-15T13:12:30;3.53;;;0.90;;
66581;SDS011;53438;48.898;2.308;2024-01-15T13:14:57;4.30;;;1.13;;
66581;SDS011;53438;48.898;2.308;2024-01-15T13:17:23;2.80;;;0.60;;
66581;SDS011;53438;48.898;2.308;2024-01-15T13:19:48;1.63;;;0.40;;
66581;SDS011;53438;48.898;2.308;2024-01-15T13:22:14;1.27;;;0.50;;
66581;SDS011;53438;48.898;2.308;2024-01-15T13:24:39;6.03;;;1.85;;
66581;SDS011;53438;48.898;2.308;2024-01-15T13:27:05;3.73;;;0.80;;
66581;SDS011;53438;48.898;2.308;2024-01-15T13:29:31;2.60;;;1.07;;
66581;SDS011;53438;48.898;2.308;2024-01-15T13:31:56;4.65;;;0.93;;
66581;SDS011;53438;48.898;2.308;2024-01-15T13:34:22;2.80;;;0.93;;
66581;SDS011;53438;48.898;2.308;2024-01-15T13:36:48;5.80;;;0.80;;
66581;SDS011;53438;48.898;2.308;2024-01-15T13:39:14;1.95;;;0.63;;
66581;SDS011;53438;48.898;2.308;2024-01-15T13:41:44;2.17;;;1.10;;
66581;SDS011;53438;48.898;2.308;2024-01-15T13:44:14;6.10;;;0.65;;
66581;SDS011;53438;48.898;2.308;2024-01-15T13:46:40;4.30;;;0.60;;
66581;SDS011;53438;48.898;2.308;2024-01-15T13:49:05;2.28;;;0.90;;
66581;SDS011;53438;48.898;2.308;2024-01-15T13:51:36;5.50;;;1.77;;
66581;SDS011;53438;48.898;2.308;2024-01-15T13:54:02;3.28;;;0.85;;
66581;SDS011;53438;48.898;2.308;2024-01-15T13:56:29;5.28;;;0.80;;
66581;SDS011;53438;48.898;2.308;2024-01-15T13:58:57;5.18;;;1.13;;
66581;SDS011;53438;48.898;2.308;2024-01-15T14:01:23;3.13;;;0.77;;
66581;SDS011;53438;48.898;2.308;2024-01-15T14:03:49;5.30;;;2.17;;
66581;SDS011;53438;48.898;2.308;2024-01-15T14:06:14;3.67;;;1.33;;
66581;SDS011;53438;48.898;2.308;2024-01-15T14:08:39;1.83;;;0.70;;
66581;SDS011;53438;48.898;2.308;2024-01-15T14:11:05;3.23;;;1.67;;
66581;SDS011;53438;48.898;2.308;2024-01-15T14:13:32;4.72;;;1.23;;
66581;SDS011;53438;48.898;2.308;2024-01-15T14:15:58;5.00;;;1.15;;
66581;SDS011;53438;48.898;2.308;2024-01-15T14:18:23;3.53;;;1.00;;
66581;SDS011;53438;48.898;2.308;2024-01-15T14:20:48;4.47;;;1.10;;
66581;SDS011;53438;48.898;2.308;2024-01-15T14:23:13;6.00;;;1.40;;
66581;SDS011;53438;48.898;2.308;2024-01-15T14:25:39;13.77;;;1.53;;
66581;SDS011;53438;48.898;2.308;2024-01-15T14:28:04;6.00;;;1.08;;
66581;SDS011;53438;48.898;2.308;2024-01-15T14:30:30;2.57;;;0.93;;
66581;SDS011;53438;48.898;2.308;2024-01-15T14:32:55;2.67;;;1.13;;
66581;SDS011;53438;48.898;2.308;2024-01-15T14:35:21;2.67;;;0.57;;
66581;SDS011;53438;48.898;2.308;2024-01-15T14:37:46;2.87;;;0.40;;
66581;SDS011;53438;48.898;2.308;2024-01-15T14:40:13;3.35;;;1.10;;
66581;SDS011;53438;48.898;2.308;2024-01-15T14:42:40;3.72;;;0.70;;
66581;SDS011;53438;48.898;2.308;2024-01-15T14:45:06;1.92;;;0.68;;
66581;SDS011;53438;48.898;2.308;2024-01-15T14:47:38;4.32;;;0.68;;
66581;SDS011;53438;48.898;2.308;2024-01-15T14:50:05;3.83;;;0.63;;
66581;SDS011;53438;48.898;2.308;2024-01-15T14:52:31;4.38;;;0.70;;
66581;SDS011;53438;48.898;2.308;2024-01-15T14:54:57;3.05;;;0.80;;
66581;SDS011;53438;48.898;2.308;2024-01-15T14:57:23;1.75;;;0.70;;
66581;SDS011;53438;48.898;2.308;2024-01-15T14:59:48;7.13;;;0.55;;
66581;SDS011;53438;48.898;2.308;2024-01-15T15:02:13;7.13;;;2.13;;
66581;SDS011;53438;48.898;2.308;2024-01-15T15:04:40;1.40;;;0.60;;
66581;SDS011;53438;48.898;2.308;2024-01-15T15:07:06;1.40;;;0.50;;
66581;SDS011;53438;48.898;2.308;2024-01-15T15:09:32;1.02;;;0.47;;
66581;SDS011;53438;48.898;2.308;2024-01-15T15:11:57;4.38;;;0.60;;
66581;SDS011;53438;48.898;2.308;2024-01-15T15:14:22;2.00;;;0.50;;
66581;SDS011;53438;48.898;2.308;2024-01-15T15:16:48;1.77;;;0.50;;
66581;SDS011;53438;48.898;2.308;2024-01-15T15:19:13;2.10;;;0.50;;
66581;SDS011;53438;48.898;2.308;2024-01-15T15:21:38;2.07;;;0.60;;
66581;SDS011;53438;48.898;2.308;2024-01-15T15:24:04;4.87;;;0.90;;
66581;SDS011;53438;48.898;2.308;2024-01-15T15:26:29;9.60;;;2.67;;
66581;SDS011;53438;48.898;2.308;2024-01-15T15:28:55;5.87;;;0.53;;
66581;SDS011;53438;48.898;2.308;2024-01-15T15:31:21;1.17;;;0.57;;
66581;SDS011;53438;48.898;2.308;2024-01-15T15:33:46;3.00;;;0.63;;
66581;SDS011;53438;48.898;2.308;2024-01-15T15:36:12;11.67;;;4.03;;
66581;SDS011;53438;48.898;2.308;2024-01-15T15:38:37;3.35;;;0.50;;
66581;SDS011;53438;48.898;2.308;2024-01-15T15:41:02;2.83;;;0.60;;
66581;SDS011;53438;48.898;2.308;2024-01-15T15:43:28;6.17;;;1.43;;
66581;SDS011;53438;48.898;2.308;2024-01-15T15:45:54;2.03;;;0.68;;
66581;SDS011;53438;48.898;2.308;2024-01-15T15:48:20;3.13;;;0.80;;
66581;SDS011;53438;48.898;2.308;2024-01-15T15:50:46;3.67;;;0.87;;
66581;SDS011;53438;48.898;2.308;2024-01-15T15:53:11;3.47;;;0.70;;
66581;SDS011;53438;48.898;2.308;2024-01-15T15:55:36;3.40;;;0.80;;
66581;SDS011;53438;48.898;2.308;2024-01-15T15:58:02;5.50;;;1.20;;
66581;SDS011;53438;48.898;2.308;2024-01-15T16:00:28;2.03;;;1.00;;
66581;SDS011;53438;48.898;2.308;2024-01-15T16:02:54;3.25;;;0.70;;
66581;SDS011;53438;48.898;2.308;2024-01-15T16:05:20;3.80;;;0.67;;
66581;SDS011;53438;48.898;2.308;2024-01-15T16:07:45;3.97;;;0.60;;
66581;SDS011;53438;48.898;2.308;2024-01-15T16:10:11;1.63;;;0.68;;
66581;SDS011;53438;48.898;2.308;2024-01-15T16:12:36;3.73;;;0.70;;
66581;SDS011;53438;48.898;2.308;2024-01-15T16:15:03;3.95;;;1.10;;
66581;SDS011;53438;48.898;2.308;2024-01-15T16:17:41;3.20;;;0.95;;
66581;SDS011;53438;48.898;2.308;2024-01-15T16:20:07;2.70;;;0.80;;
66581;SDS011;53438;48.898;2.308;2024-01-15T16:22:33;2.40;;;0.50;;
66581;SDS011;53438;48.898;2.308;2024-01-15T16:24:58;1.75;;;0.82;;
66581;SDS011;53438;48.898;2.308;2024-01-15T16:27:24;2.33;;;0.70;;
66581;SDS011;53438;48.898;2.308;2024-01-15T16:29:50;3.30;;;1.10;;
66581;SDS011;53438;48.898;2.308;2024-01-15T16:32:16;3.43;;;1.00;;
66581;SDS011;53438;48.898;2.308;2024-01-15T16:34:41;1.97;;;0.87;;
66581;SDS011;53438;48.898;2.308;2024-01-15T16:37:06;8.37;;;4.47;;
66581;SDS011;53438;48.898;2.308;2024-01-15T16:39:33;2.88;;;1.42;;
66581;SDS011;53438;48.898;2.308;2024-01-15T16:41:58;4.80;;;1.13;;
66581;SDS011;53438;48.898;2.308;2024-01-15T16:44:23;5.37;;;0.93;;
66581;SDS011;53438;48.898;2.308;2024-01-15T16:46:49;3.67;;;0.97;;
66581;SDS011;53438;48.898;2.308;2024-01-15T16:49:14;5.27;;;1.53;;
66581;SDS011;53438;48.898;2.308;2024-01-15T16:51:39;4.00;;;1.00;;
66581;SDS011;53438;48.898;2.308;2024-01-15T16:54:05;5.73;;;1.30;;
66581;SDS011;53438;48.898;2.308;2024-01-15T16:56:30;3.37;;;0.87;;
66581;SDS011;53438;48.898;2.308;2024-01-15T16:58:55;2.95;;;0.90;;
66581;SDS011;53438;48.898;2.308;2024-01-15T17:01:21;3.97;;;1.33;;
66581;SDS011;53438;48.898;2.308;2024-01-15T17:03:46;3.87;;;1.33;;
66581;SDS011;53438;48.898;2.308;2024-01-15T17:06:11;6.37;;;1.13;;
66581;SDS011;53438;48.898;2.308;2024-01-15T17:08:37;2.40;;;0.70;;
66581;SDS011;53438;48.898;2.308;2024-01-15T17:11:02;8.87;;;1.53;;
66581;SDS011;53438;48.898;2.308;2024-01-15T17:13:28;2.17;;;0.80;;
66581;SDS011;53438;48.898;2.308;2024-01-15T17:15:53;6.75;;;1.58;;
66581;SDS011;53438;48.898;2.308;2024-01-15T17:18:20;2.07;;;1.17;;
66581;SDS011;53438;48.898;2.308;2024-01-15T17:20:46;4.28;;;1.08;;
66581;SDS011;53438;48.898;2.308;2024-01-15T17:23:13;6.10;;;1.20;;
66581;SDS011;53438;48.898;2.308;2024-01-15T17:25:39;3.05;;;1.70;;
66581;SDS011;53438;48.898;2.308;2024-01-15T17:28:04;6.17;;;1.70;;
66581;SDS011;53438;48.898;2.308;2024-01-15T17:30:29;5.83;;;1.90;;
66581;SDS011;53438;48.898;2.308;2024-01-15T17:32:55;6.18;;;1.70;;
66581;SDS011;53438;48.898;2.308;2024-01-15T17:35:21;13.47;;;9.67;;
66581;SDS011;53438;48.898;2.308;2024-01-15T17:37:46;9.07;;;2.85;;
66581;SDS011;53438;48.898;2.308;2024-01-15T17:40:12;9.52;;;5.40;;
66581;SDS011;53438;48.898;2.308;2024-01-15T17:42:37;12.00;;;3.87;;
66581;SDS011;53438;48.898;2.308;2024-01-15T17:45:03;7.07;;;3.03;;
66581;SDS011;53438;48.898;2.308;2024-01-15T17:47:29;8.40;;;2.28;;
66581;SDS011;53438;48.898;2.308;2024-01-15T17:49:55;8.70;;;2.42;;
66581;SDS011;53438;48.898;2.308;2024-01-15T17:52:20;11.30;;;2.85;;